Decoded Metar for LFSG (EPINAL in FRANCE) (IATA:EPL) | Meteo·Mobile Aviation Weather
aviador You're here:

LFSG Decoded Metar

EPINAL in FRANCE
Report Time2018-08-21 07:30:00
UTC Time2018-08-21 07:51:18
Flight Rules vfr VFR
Wind020° at 03 kt
W.Decomp.*RWY 08: 1.5 kt HW 2.6 kt LCW
W.Rank020° ranks 7
Current wind is below 020° avg. (5.9)
Visibility9999 m
Phenomena:N/A
Clouds:N/A
Expected CloudBase > 2,000 ft AGL from Temp-Dew spread
CeilingNone
Temp21°C (ISA +8)
Dew Point16°C (73% RH)
QNH1021 hPa
Density Alt2,011 ft
Elevation1,083 ft
Report Wrong Elevation
Raw Report
METAR LFSG 210730Z AUTO 02003KT 340V050 CAVOK 21/16 Q1021=

Extra information for LFSG:More info

Metar Taf Metar & Taf Last 4 Metars F.Rules Stats Wind Profile Meteogram Temp Stats Airport Information Weather charts Add Link Nearby VenuesMetar ALERT Operation Metar Decoded Social comments